sensor_id;sensor_type;location;lat;lon;timestamp;P1;durP1;ratioP1;P2;durP2;ratioP2
7289;SDS011;63176;52.678;13.250;2023-02-17T00:02:04;17.73;;;10.20;;
7289;SDS011;63176;52.678;13.250;2023-02-17T00:04:30;23.57;;;12.47;;
7289;SDS011;63176;52.678;13.250;2023-02-17T00:06:57;20.27;;;11.40;;
7289;SDS011;63176;52.678;13.250;2023-02-17T00:09:23;19.50;;;10.83;;
7289;SDS011;63176;52.678;13.250;2023-02-17T00:11:49;20.20;;;11.37;;
7289;SDS011;63176;52.678;13.250;2023-02-17T00:14:15;22.40;;;11.80;;
7289;SDS011;63176;52.678;13.250;2023-02-17T00:16:41;25.23;;;12.27;;
7289;SDS011;63176;52.678;13.250;2023-02-17T00:19:09;25.52;;;12.82;;
7289;SDS011;63176;52.678;13.250;2023-02-17T00:21:49;21.92;;;12.40;;
7289;SDS011;63176;52.678;13.250;2023-02-17T00:24:16;23.75;;;12.60;;
7289;SDS011;63176;52.678;13.250;2023-02-17T00:26:42;22.53;;;11.77;;
7289;SDS011;63176;52.678;13.250;2023-02-17T00:29:07;18.97;;;11.67;;
7289;SDS011;63176;52.678;13.250;2023-02-17T00:31:33;23.13;;;13.00;;
7289;SDS011;63176;52.678;13.250;2023-02-17T00:33:58;32.97;;;12.07;;
7289;SDS011;63176;52.678;13.250;2023-02-17T00:36:25;22.63;;;12.50;;
7289;SDS011;63176;52.678;13.250;2023-02-17T00:38:52;24.92;;;13.38;;
7289;SDS011;63176;52.678;13.250;2023-02-17T00:41:21;26.20;;;14.07;;
7289;SDS011;63176;52.678;13.250;2023-02-17T00:43:48;27.98;;;14.55;;
7289;SDS011;63176;52.678;13.250;2023-02-17T00:46:14;23.13;;;12.85;;
7289;SDS011;63176;52.678;13.250;2023-02-17T00:48:41;25.63;;;13.70;;
7289;SDS011;63176;52.678;13.250;2023-02-17T00:51:07;24.67;;;13.97;;
7289;SDS011;63176;52.678;13.250;2023-02-17T00:53:34;27.40;;;13.02;;
7289;SDS011;63176;52.678;13.250;2023-02-17T00:55:59;27.27;;;13.77;;
7289;SDS011;63176;52.678;13.250;2023-02-17T00:58:25;26.83;;;14.23;;
7289;SDS011;63176;52.678;13.250;2023-02-17T01:00:51;25.70;;;14.02;;
7289;SDS011;63176;52.678;13.250;2023-02-17T01:03:19;29.35;;;15.07;;
7289;SDS011;63176;52.678;13.250;2023-02-17T01:05:45;24.97;;;14.60;;
7289;SDS011;63176;52.678;13.250;2023-02-17T01:08:12;28.90;;;14.27;;
7289;SDS011;63176;52.678;13.250;2023-02-17T01:10:39;25.92;;;14.52;;
7289;SDS011;63176;52.678;13.250;2023-02-17T01:13:06;25.55;;;13.75;;
7289;SDS011;63176;52.678;13.250;2023-02-17T01:15:36;29.40;;;13.80;;
7289;SDS011;63176;52.678;13.250;2023-02-17T01:18:05;27.27;;;13.80;;
7289;SDS011;63176;52.678;13.250;2023-02-17T01:20:37;28.07;;;15.23;;
7289;SDS011;63176;52.678;13.250;2023-02-17T01:23:04;23.85;;;12.40;;
7289;SDS011;63176;52.678;13.250;2023-02-17T01:25:31;34.58;;;13.77;;
7289;SDS011;63176;52.678;13.250;2023-02-17T01:28:00;29.02;;;14.10;;
7289;SDS011;63176;52.678;13.250;2023-02-17T01:30:25;26.77;;;13.57;;
7289;SDS011;63176;52.678;13.250;2023-02-17T01:32:51;25.77;;;14.03;;
7289;SDS011;63176;52.678;13.250;2023-02-17T01:35:17;27.17;;;14.90;;
7289;SDS011;63176;52.678;13.250;2023-02-17T01:37:42;26.33;;;13.63;;
7289;SDS011;63176;52.678;13.250;2023-02-17T01:40:08;29.13;;;13.73;;
7289;SDS011;63176;52.678;13.250;2023-02-17T01:42:35;30.10;;;14.13;;
7289;SDS011;63176;52.678;13.250;2023-02-17T01:45:22;20.90;;;11.73;;
7289;SDS011;63176;52.678;13.250;2023-02-17T01:48:07;29.15;;;14.10;;
7289;SDS011;63176;52.678;13.250;2023-02-17T01:50:45;22.88;;;13.43;;
7289;SDS011;63176;52.678;13.250;2023-02-17T01:53:19;27.27;;;13.15;;
7289;SDS011;63176;52.678;13.250;2023-02-17T01:55:48;25.08;;;13.20;;
7289;SDS011;63176;52.678;13.250;2023-02-17T01:58:14;27.35;;;13.10;;
7289;SDS011;63176;52.678;13.250;2023-02-17T02:00:43;23.38;;;13.50;;
7289;SDS011;63176;52.678;13.250;2023-02-17T02:03:09;24.47;;;14.00;;
7289;SDS011;63176;52.678;13.250;2023-02-17T02:05:38;29.05;;;15.38;;
7289;SDS011;63176;52.678;13.250;2023-02-17T02:08:05;26.63;;;13.73;;
7289;SDS011;63176;52.678;13.250;2023-02-17T02:10:31;27.15;;;13.93;;
7289;SDS011;63176;52.678;13.250;2023-02-17T02:12:56;28.83;;;14.10;;
7289;SDS011;63176;52.678;13.250;2023-02-17T02:15:22;28.37;;;14.27;;
7289;SDS011;63176;52.678;13.250;2023-02-17T02:29:21;26.98;;;14.48;;
7289;SDS011;63176;52.678;13.250;2023-02-17T02:35:27;22.80;;;13.10;;
7289;SDS011;63176;52.678;13.250;2023-02-17T02:40:55;24.98;;;13.55;;
7289;SDS011;63176;52.678;13.250;2023-02-17T02:43:29;29.45;;;14.52;;
7289;SDS011;63176;52.678;13.250;2023-02-17T02:45:56;27.73;;;14.55;;
7289;SDS011;63176;52.678;13.250;2023-02-17T02:48:22;24.40;;;13.93;;
7289;SDS011;63176;52.678;13.250;2023-02-17T02:59:05;23.70;;;13.38;;
7289;SDS011;63176;52.678;13.250;2023-02-17T03:02:19;24.02;;;13.32;;
7289;SDS011;63176;52.678;13.250;2023-02-17T03:05:10;26.20;;;14.40;;
7289;SDS011;63176;52.678;13.250;2023-02-17T03:07:39;25.33;;;13.40;;
7289;SDS011;63176;52.678;13.250;2023-02-17T03:10:10;26.70;;;15.15;;
7289;SDS011;63176;52.678;13.250;2023-02-17T03:12:38;29.15;;;13.25;;
7289;SDS011;63176;52.678;13.250;2023-02-17T03:15:15;24.20;;;14.13;;
7289;SDS011;63176;52.678;13.250;2023-02-17T03:17:51;25.10;;;14.35;;
7289;SDS011;63176;52.678;13.250;2023-02-17T03:20:17;22.87;;;13.40;;
7289;SDS011;63176;52.678;13.250;2023-02-17T03:22:44;23.80;;;13.60;;
7289;SDS011;63176;52.678;13.250;2023-02-17T03:25:11;27.90;;;14.57;;
7289;SDS011;63176;52.678;13.250;2023-02-17T03:27:37;30.47;;;14.70;;
7289;SDS011;63176;52.678;13.250;2023-02-17T03:30:03;26.60;;;14.20;;
7289;SDS011;63176;52.678;13.250;2023-02-17T03:32:30;26.25;;;13.30;;
7289;SDS011;63176;52.678;13.250;2023-02-17T03:34:56;27.27;;;13.80;;
7289;SDS011;63176;52.678;13.250;2023-02-17T03:37:21;27.00;;;14.10;;
7289;SDS011;63176;52.678;13.250;2023-02-17T03:39:47;22.23;;;12.23;;
7289;SDS011;63176;52.678;13.250;2023-02-17T03:42:13;28.93;;;14.17;;
7289;SDS011;63176;52.678;13.250;2023-02-17T03:44:38;29.43;;;14.90;;
7289;SDS011;63176;52.678;13.250;2023-02-17T03:47:04;26.47;;;15.23;;
7289;SDS011;63176;52.678;13.250;2023-02-17T03:49:30;30.88;;;15.73;;
7289;SDS011;63176;52.678;13.250;2023-02-17T03:51:56;26.93;;;13.60;;
7289;SDS011;63176;52.678;13.250;2023-02-17T03:54:23;29.58;;;15.02;;
7289;SDS011;63176;52.678;13.250;2023-02-17T03:56:49;23.73;;;14.80;;
7289;SDS011;63176;52.678;13.250;2023-02-17T03:59:15;26.87;;;14.03;;
7289;SDS011;63176;52.678;13.250;2023-02-17T04:01:40;22.90;;;12.60;;
7289;SDS011;63176;52.678;13.250;2023-02-17T04:04:06;21.70;;;13.70;;
7289;SDS011;63176;52.678;13.250;2023-02-17T04:06:32;25.90;;;14.70;;
7289;SDS011;63176;52.678;13.250;2023-02-17T04:08:57;29.40;;;14.07;;
7289;SDS011;63176;52.678;13.250;2023-02-17T04:11:23;23.93;;;14.27;;
7289;SDS011;63176;52.678;13.250;2023-02-17T04:13:48;23.30;;;13.70;;
7289;SDS011;63176;52.678;13.250;2023-02-17T04:16:14;30.37;;;15.53;;
7289;SDS011;63176;52.678;13.250;2023-02-17T04:18:40;25.90;;;14.37;;
7289;SDS011;63176;52.678;13.250;2023-02-17T04:21:06;27.40;;;14.60;;
7289;SDS011;63176;52.678;13.250;2023-02-17T04:23:33;24.08;;;13.18;;
7289;SDS011;63176;52.678;13.250;2023-02-17T04:26:00;23.42;;;14.10;;
7289;SDS011;63176;52.678;13.250;2023-02-17T04:28:26;20.98;;;12.00;;
7289;SDS011;63176;52.678;13.250;2023-02-17T04:30:52;24.57;;;13.80;;
7289;SDS011;63176;52.678;13.250;2023-02-17T04:33:17;20.27;;;12.60;;
7289;SDS011;63176;52.678;13.250;2023-02-17T04:35:43;23.70;;;13.20;;
7289;SDS011;63176;52.678;13.250;2023-02-17T04:38:11;20.45;;;12.65;;
7289;SDS011;63176;52.678;13.250;2023-02-17T04:40:36;26.73;;;14.23;;
7289;SDS011;63176;52.678;13.250;2023-02-17T04:43:02;19.57;;;11.73;;
7289;SDS011;63176;52.678;13.250;2023-02-17T04:45:28;19.57;;;11.60;;
7289;SDS011;63176;52.678;13.250;2023-02-17T04:47:54;21.42;;;11.82;;
7289;SDS011;63176;52.678;13.250;2023-02-17T04:50:20;22.80;;;12.00;;
7289;SDS011;63176;52.678;13.250;2023-02-17T04:52:46;25.10;;;13.23;;
7289;SDS011;63176;52.678;13.250;2023-02-17T04:55:11;21.50;;;13.30;;
7289;SDS011;63176;52.678;13.250;2023-02-17T04:57:37;23.03;;;13.20;;
7289;SDS011;63176;52.678;13.250;2023-02-17T05:00:03;25.50;;;13.00;;
7289;SDS011;63176;52.678;13.250;2023-02-17T05:02:30;18.90;;;12.65;;
7289;SDS011;63176;52.678;13.250;2023-02-17T05:04:55;23.17;;;12.57;;
7289;SDS011;63176;52.678;13.250;2023-02-17T05:07:21;25.50;;;13.10;;
7289;SDS011;63176;52.678;13.250;2023-02-17T05:09:47;26.90;;;14.50;;
7289;SDS011;63176;52.678;13.250;2023-02-17T05:12:13;21.87;;;12.67;;
7289;SDS011;63176;52.678;13.250;2023-02-17T05:14:38;22.20;;;12.83;;
7289;SDS011;63176;52.678;13.250;2023-02-17T05:17:04;26.17;;;13.67;;
7289;SDS011;63176;52.678;13.250;2023-02-17T05:19:30;22.57;;;13.93;;
7289;SDS011;63176;52.678;13.250;2023-02-17T05:21:55;27.60;;;12.93;;
7289;SDS011;63176;52.678;13.250;2023-02-17T05:24:21;24.87;;;12.27;;
7289;SDS011;63176;52.678;13.250;2023-02-17T05:26:47;23.67;;;12.40;;
7289;SDS011;63176;52.678;13.250;2023-02-17T05:29:13;25.37;;;13.57;;
7289;SDS011;63176;52.678;13.250;2023-02-17T05:31:38;23.60;;;13.37;;
7289;SDS011;63176;52.678;13.250;2023-02-17T05:34:04;21.40;;;12.20;;
7289;SDS011;63176;52.678;13.250;2023-02-17T05:36:29;27.77;;;12.30;;
7289;SDS011;63176;52.678;13.250;2023-02-17T05:38:55;25.50;;;13.03;;
7289;SDS011;63176;52.678;13.250;2023-02-17T05:41:21;24.80;;;13.60;;
7289;SDS011;63176;52.678;13.250;2023-02-17T05:43:46;22.63;;;13.13;;
7289;SDS011;63176;52.678;13.250;2023-02-17T05:46:12;24.07;;;13.43;;
7289;SDS011;63176;52.678;13.250;2023-02-17T05:48:38;23.70;;;12.75;;
7289;SDS011;63176;52.678;13.250;2023-02-17T05:51:05;19.63;;;11.43;;
7289;SDS011;63176;52.678;13.250;2023-02-17T05:53:30;22.33;;;13.65;;
7289;SDS011;63176;52.678;13.250;2023-02-17T05:55:56;26.30;;;14.10;;
7289;SDS011;63176;52.678;13.250;2023-02-17T05:58:22;22.37;;;13.50;;
7289;SDS011;63176;52.678;13.250;2023-02-17T06:00:47;27.37;;;12.93;;
7289;SDS011;63176;52.678;13.250;2023-02-17T06:03:13;21.33;;;12.70;;
7289;SDS011;63176;52.678;13.250;2023-02-17T06:05:39;19.77;;;13.40;;
7289;SDS011;63176;52.678;13.250;2023-02-17T06:08:05;26.00;;;11.70;;
7289;SDS011;63176;52.678;13.250;2023-02-17T06:10:31;29.90;;;13.18;;
7289;SDS011;63176;52.678;13.250;2023-02-17T06:12:57;27.03;;;14.10;;
7289;SDS011;63176;52.678;13.250;2023-02-17T06:15:22;24.23;;;13.13;;
7289;SDS011;63176;52.678;13.250;2023-02-17T06:17:48;22.33;;;12.03;;
7289;SDS011;63176;52.678;13.250;2023-02-17T06:20:14;25.57;;;13.20;;
7289;SDS011;63176;52.678;13.250;2023-02-17T06:22:40;22.73;;;12.50;;
7289;SDS011;63176;52.678;13.250;2023-02-17T06:25:06;29.08;;;14.05;;
7289;SDS011;63176;52.678;13.250;2023-02-17T06:27:33;22.23;;;12.75;;
7289;SDS011;63176;52.678;13.250;2023-02-17T06:29:59;22.90;;;13.87;;
7289;SDS011;63176;52.678;13.250;2023-02-17T06:32:24;19.87;;;12.30;;
7289;SDS011;63176;52.678;13.250;2023-02-17T06:34:50;25.50;;;14.17;;
7289;SDS011;63176;52.678;13.250;2023-02-17T06:37:16;22.53;;;11.73;;
7289;SDS011;63176;52.678;13.250;2023-02-17T06:39:41;21.70;;;12.00;;
7289;SDS011;63176;52.678;13.250;2023-02-17T06:42:07;21.03;;;12.40;;
7289;SDS011;63176;52.678;13.250;2023-02-17T06:44:33;23.57;;;12.07;;
7289;SDS011;63176;52.678;13.250;2023-02-17T06:46:58;22.70;;;13.23;;
7289;SDS011;63176;52.678;13.250;2023-02-17T06:49:24;22.33;;;12.40;;
7289;SDS011;63176;52.678;13.250;2023-02-17T06:51:50;27.60;;;13.83;;
7289;SDS011;63176;52.678;13.250;2023-02-17T06:54:15;18.60;;;11.50;;
7289;SDS011;63176;52.678;13.250;2023-02-17T06:56:41;26.85;;;13.48;;
7289;SDS011;63176;52.678;13.250;2023-02-17T06:59:07;25.83;;;12.80;;
7289;SDS011;63176;52.678;13.250;2023-02-17T07:01:33;23.13;;;12.83;;
7289;SDS011;63176;52.678;13.250;2023-02-17T07:03:58;21.37;;;12.63;;
7289;SDS011;63176;52.678;13.250;2023-02-17T07:06:24;20.43;;;12.13;;
7289;SDS011;63176;52.678;13.250;2023-02-17T07:08:50;26.40;;;12.98;;
7289;SDS011;63176;52.678;13.250;2023-02-17T07:11:16;27.48;;;14.98;;
7289;SDS011;63176;52.678;13.250;2023-02-17T07:13:42;22.45;;;11.75;;
7289;SDS011;63176;52.678;13.250;2023-02-17T07:16:10;30.37;;;15.97;;
7289;SDS011;63176;52.678;13.250;2023-02-17T07:18:36;21.15;;;11.77;;
7289;SDS011;63176;52.678;13.250;2023-02-17T07:21:03;21.13;;;12.30;;
7289;SDS011;63176;52.678;13.250;2023-02-17T07:23:30;17.85;;;10.63;;
7289;SDS011;63176;52.678;13.250;2023-02-17T07:25:55;18.87;;;11.73;;
7289;SDS011;63176;52.678;13.250;2023-02-17T07:28:25;17.20;;;10.70;;
7289;SDS011;63176;52.678;13.250;2023-02-17T07:30:51;20.17;;;11.93;;
7289;SDS011;63176;52.678;13.250;2023-02-17T07:33:16;15.27;;;9.30;;
7289;SDS011;63176;52.678;13.250;2023-02-17T07:35:42;17.83;;;10.50;;
7289;SDS011;63176;52.678;13.250;2023-02-17T07:38:08;17.00;;;9.60;;
7289;SDS011;63176;52.678;13.250;2023-02-17T07:40:34;21.40;;;10.07;;
7289;SDS011;63176;52.678;13.250;2023-02-17T07:43:00;16.50;;;10.10;;
7289;SDS011;63176;52.678;13.250;2023-02-17T07:45:25;17.47;;;10.33;;
7289;SDS011;63176;52.678;13.250;2023-02-17T07:47:51;18.60;;;11.47;;
7289;SDS011;63176;52.678;13.250;2023-02-17T07:50:17;13.63;;;9.30;;
7289;SDS011;63176;52.678;13.250;2023-02-17T07:52:43;16.13;;;9.70;;
7289;SDS011;63176;52.678;13.250;2023-02-17T07:55:08;18.30;;;10.30;;
7289;SDS011;63176;52.678;13.250;2023-02-17T07:57:34;14.03;;;8.60;;
7289;SDS011;63176;52.678;13.250;2023-02-17T08:00:00;14.77;;;8.80;;
7289;SDS011;63176;52.678;13.250;2023-02-17T08:02:25;16.00;;;8.93;;
7289;SDS011;63176;52.678;13.250;2023-02-17T08:04:51;23.17;;;11.03;;
7289;SDS011;63176;52.678;13.250;2023-02-17T08:07:17;17.80;;;10.27;;
7289;SDS011;63176;52.678;13.250;2023-02-17T08:09:43;12.50;;;8.38;;
7289;SDS011;63176;52.678;13.250;2023-02-17T08:12:27;13.82;;;8.45;;
7289;SDS011;63176;52.678;13.250;2023-02-17T08:15:11;13.38;;;7.85;;
7289;SDS011;63176;52.678;13.250;2023-02-17T08:17:37;13.23;;;8.37;;
7289;SDS011;63176;52.678;13.250;2023-02-17T08:20:03;11.10;;;7.20;;
7289;SDS011;63176;52.678;13.250;2023-02-17T08:22:30;11.45;;;7.28;;
7289;SDS011;63176;52.678;13.250;2023-02-17T08:24:56;15.00;;;9.10;;
7289;SDS011;63176;52.678;13.250;2023-02-17T08:27:22;14.50;;;8.37;;
7289;SDS011;63176;52.678;13.250;2023-02-17T08:29:47;12.47;;;8.40;;
7289;SDS011;63176;52.678;13.250;2023-02-17T08:32:14;12.20;;;8.17;;
7289;SDS011;63176;52.678;13.250;2023-02-17T08:34:41;13.73;;;8.27;;
7289;SDS011;63176;52.678;13.250;2023-02-17T08:37:08;12.00;;;8.30;;
7289;SDS011;63176;52.678;13.250;2023-02-17T08:39:34;13.18;;;8.00;;
7289;SDS011;63176;52.678;13.250;2023-02-17T08:42:00;14.15;;;9.20;;
7289;SDS011;63176;52.678;13.250;2023-02-17T08:44:27;11.85;;;8.95;;
7289;SDS011;63176;52.678;13.250;2023-02-17T08:46:53;13.40;;;9.30;;
7289;SDS011;63176;52.678;13.250;2023-02-17T08:49:19;12.27;;;7.80;;
7289;SDS011;63176;52.678;13.250;2023-02-17T08:51:47;11.35;;;7.65;;
7289;SDS011;63176;52.678;13.250;2023-02-17T08:54:14;11.40;;;8.02;;
7289;SDS011;63176;52.678;13.250;2023-02-17T08:56:39;10.80;;;7.67;;
7289;SDS011;63176;52.678;13.250;2023-02-17T08:59:07;14.15;;;7.97;;
7289;SDS011;63176;52.678;13.250;2023-02-17T09:01:34;13.10;;;8.38;;
7289;SDS011;63176;52.678;13.250;2023-02-17T09:04:00;13.35;;;8.13;;
7289;SDS011;63176;52.678;13.250;2023-02-17T09:06:35;16.15;;;9.30;;
7289;SDS011;63176;52.678;13.250;2023-02-17T09:09:03;13.20;;;7.90;;
7289;SDS011;63176;52.678;13.250;2023-02-17T09:11:30;13.32;;;7.70;;
7289;SDS011;63176;52.678;13.250;2023-02-17T09:13:56;12.50;;;7.80;;
7289;SDS011;63176;52.678;13.250;2023-02-17T09:16:22;13.47;;;7.40;;
7289;SDS011;63176;52.678;13.250;2023-02-17T09:18:49;13.55;;;7.45;;
7289;SDS011;63176;52.678;13.250;2023-02-17T09:21:15;11.57;;;7.65;;
7289;SDS011;63176;52.678;13.250;2023-02-17T09:23:41;11.30;;;7.27;;
7289;SDS011;63176;52.678;13.250;2023-02-17T09:26:08;13.37;;;8.07;;
7289;SDS011;63176;52.678;13.250;2023-02-17T09:28:36;11.65;;;7.55;;
7289;SDS011;63176;52.678;13.250;2023-02-17T09:33:48;14.13;;;8.55;;
7289;SDS011;63176;52.678;13.250;2023-02-17T09:36:18;14.85;;;8.90;;
7289;SDS011;63176;52.678;13.250;2023-02-17T09:38:47;11.13;;;7.70;;
7289;SDS011;63176;52.678;13.250;2023-02-17T09:41:15;10.02;;;7.13;;
7289;SDS011;63176;52.678;13.250;2023-02-17T09:43:43;10.65;;;8.00;;
7289;SDS011;63176;52.678;13.250;2023-02-17T09:46:17;11.80;;;8.20;;
7289;SDS011;63176;52.678;13.250;2023-02-17T09:48:46;12.98;;;7.93;;
7289;SDS011;63176;52.678;13.250;2023-02-17T09:56:34;12.18;;;7.75;;
7289;SDS011;63176;52.678;13.250;2023-02-17T09:59:05;13.65;;;8.38;;
7289;SDS011;63176;52.678;13.250;2023-02-17T10:01:40;12.07;;;8.93;;
7289;SDS011;63176;52.678;13.250;2023-02-17T10:04:11;15.27;;;9.15;;
7289;SDS011;63176;52.678;13.250;2023-02-17T10:09:58;13.88;;;8.95;;
7289;SDS011;63176;52.678;13.250;2023-02-17T10:12:49;16.02;;;8.30;;
7289;SDS011;63176;52.678;13.250;2023-02-17T10:15:23;15.68;;;7.82;;
7289;SDS011;63176;52.678;13.250;2023-02-17T10:17:55;16.10;;;8.93;;
7289;SDS011;63176;52.678;13.250;2023-02-17T10:22:50;16.27;;;9.35;;
7289;SDS011;63176;52.678;13.250;2023-02-17T10:25:46;13.75;;;9.48;;
7289;SDS011;63176;52.678;13.250;2023-02-17T10:28:49;13.55;;;9.13;;
7289;SDS011;63176;52.678;13.250;2023-02-17T10:42:19;14.82;;;9.02;;
7289;SDS011;63176;52.678;13.250;2023-02-17T10:44:49;15.68;;;9.70;;
7289;SDS011;63176;52.678;13.250;2023-02-17T10:47:17;16.30;;;9.07;;
7289;SDS011;63176;52.678;13.250;2023-02-17T10:49:46;15.15;;;9.02;;
7289;SDS011;63176;52.678;13.250;2023-02-17T10:52:16;15.02;;;10.13;;
7289;SDS011;63176;52.678;13.250;2023-02-17T10:54:55;16.50;;;9.93;;
7289;SDS011;63176;52.678;13.250;2023-02-17T10:57:27;14.90;;;9.80;;
7289;SDS011;63176;52.678;13.250;2023-02-17T10:59:59;19.52;;;10.32;;
7289;SDS011;63176;52.678;13.250;2023-02-17T11:02:46;16.23;;;10.20;;
7289;SDS011;63176;52.678;13.250;2023-02-17T11:05:30;13.13;;;9.02;;
7289;SDS011;63176;52.678;13.250;2023-02-17T11:08:18;16.58;;;9.82;;
7289;SDS011;63176;52.678;13.250;2023-02-17T11:10:59;12.95;;;8.35;;
7289;SDS011;63176;52.678;13.250;2023-02-17T11:13:42;13.13;;;9.23;;
7289;SDS011;63176;52.678;13.250;2023-02-17T11:16:27;16.88;;;9.57;;
7289;SDS011;63176;52.678;13.250;2023-02-17T11:18:59;18.65;;;10.15;;
7289;SDS011;63176;52.678;13.250;2023-02-17T11:21:26;14.68;;;8.15;;
7289;SDS011;63176;52.678;13.250;2023-02-17T11:24:00;15.63;;;9.93;;
7289;SDS011;63176;52.678;13.250;2023-02-17T11:26:29;14.65;;;9.55;;
7289;SDS011;63176;52.678;13.250;2023-02-17T11:29:09;14.35;;;9.60;;
7289;SDS011;63176;52.678;13.250;2023-02-17T11:31:40;15.85;;;8.85;;
7289;SDS011;63176;52.678;13.250;2023-02-17T11:34:09;19.07;;;10.23;;
7289;SDS011;63176;52.678;13.250;2023-02-17T11:36:36;14.50;;;9.02;;
7289;SDS011;63176;52.678;13.250;2023-02-17T11:39:14;16.57;;;9.30;;
7289;SDS011;63176;52.678;13.250;2023-02-17T11:41:44;14.63;;;9.88;;
7289;SDS011;63176;52.678;13.250;2023-02-17T11:44:10;15.30;;;9.90;;
7289;SDS011;63176;52.678;13.250;2023-02-17T11:47:41;14.52;;;9.57;;
7289;SDS011;63176;52.678;13.250;2023-02-17T11:49:49;16.00;;;8.60;;
7289;SDS011;63176;52.678;13.250;2023-02-17T11:58:10;14.88;;;9.45;;
7289;SDS011;63176;52.678;13.250;2023-02-17T12:11:48;13.02;;;8.35;;
7289;SDS011;63176;52.678;13.250;2023-02-17T12:14:33;13.20;;;8.35;;
7289;SDS011;63176;52.678;13.250;2023-02-17T12:17:05;12.15;;;7.88;;
7289;SDS011;63176;52.678;13.250;2023-02-17T12:25:26;11.57;;;7.38;;
7289;SDS011;63176;52.678;13.250;2023-02-17T12:30:55;13.25;;;6.68;;
7289;SDS011;63176;52.678;13.250;2023-02-17T12:33:43;11.48;;;6.88;;
7289;SDS011;63176;52.678;13.250;2023-02-17T12:36:26;10.25;;;7.25;;
7289;SDS011;63176;52.678;13.250;2023-02-17T12:39:02;10.35;;;6.50;;
7289;SDS011;63176;52.678;13.250;2023-02-17T12:41:42;9.93;;;6.95;;
7289;SDS011;63176;52.678;13.250;2023-02-17T12:44:13;9.90;;;6.60;;
7289;SDS011;63176;52.678;13.250;2023-02-17T12:46:44;9.52;;;6.15;;
7289;SDS011;63176;52.678;13.250;2023-02-17T12:51:57;11.60;;;6.75;;
7289;SDS011;63176;52.678;13.250;2023-02-17T12:54:38;10.48;;;6.35;;
7289;SDS011;63176;52.678;13.250;2023-02-17T12:59:42;8.10;;;5.60;;
7289;SDS011;63176;52.678;13.250;2023-02-17T13:02:16;6.63;;;5.40;;
7289;SDS011;63176;52.678;13.250;2023-02-17T13:04:45;8.40;;;5.90;;
7289;SDS011;63176;52.678;13.250;2023-02-17T13:09:58;6.47;;;4.75;;
7289;SDS011;63176;52.678;13.250;2023-02-17T13:14:53;8.77;;;5.43;;
7289;SDS011;63176;52.678;13.250;2023-02-17T13:17:22;8.25;;;5.72;;
7289;SDS011;63176;52.678;13.250;2023-02-17T13:20:19;8.05;;;5.03;;
7289;SDS011;63176;52.678;13.250;2023-02-17T13:23:11;8.05;;;5.70;;
7289;SDS011;63176;52.678;13.250;2023-02-17T13:25:38;5.95;;;4.45;;
7289;SDS011;63176;52.678;13.250;2023-02-17T13:28:29;8.10;;;4.90;;
7289;SDS011;63176;52.678;13.250;2023-02-17T13:33:39;7.38;;;5.57;;
7289;SDS011;63176;52.678;13.250;2023-02-17T13:38:58;5.90;;;4.35;;
7289;SDS011;63176;52.678;13.250;2023-02-17T13:41:42;7.40;;;4.38;;
7289;SDS011;63176;52.678;13.250;2023-02-17T13:44:43;6.47;;;4.45;;
7289;SDS011;63176;52.678;13.250;2023-02-17T13:47:18;5.45;;;4.40;;
7289;SDS011;63176;52.678;13.250;2023-02-17T13:50:23;8.75;;;4.53;;
7289;SDS011;63176;52.678;13.250;2023-02-17T13:53:01;5.35;;;3.90;;
7289;SDS011;63176;52.678;13.250;2023-02-17T13:55:30;7.03;;;4.88;;
7289;SDS011;63176;52.678;13.250;2023-02-17T13:57:56;7.30;;;4.20;;
7289;SDS011;63176;52.678;13.250;2023-02-17T14:00:29;5.28;;;4.18;;
7289;SDS011;63176;52.678;13.250;2023-02-17T14:03:10;6.57;;;4.68;;
7289;SDS011;63176;52.678;13.250;2023-02-17T14:05:37;14.98;;;5.70;;
7289;SDS011;63176;52.678;13.250;2023-02-17T14:11:29;7.85;;;6.00;;
7289;SDS011;63176;52.678;13.250;2023-02-17T14:13:55;8.30;;;4.93;;
7289;SDS011;63176;52.678;13.250;2023-02-17T14:16:26;11.45;;;6.22;;
7289;SDS011;63176;52.678;13.250;2023-02-17T14:19:00;6.97;;;5.15;;
7289;SDS011;63176;52.678;13.250;2023-02-17T14:21:28;7.70;;;5.22;;
7289;SDS011;63176;52.678;13.250;2023-02-17T14:23:55;8.00;;;5.67;;
7289;SDS011;63176;52.678;13.250;2023-02-17T14:29:01;8.77;;;5.45;;
7289;SDS011;63176;52.678;13.250;2023-02-17T14:31:35;10.35;;;5.45;;
7289;SDS011;63176;52.678;13.250;2023-02-17T14:34:05;12.23;;;5.40;;
7289;SDS011;63176;52.678;13.250;2023-02-17T14:36:33;10.70;;;6.18;;
7289;SDS011;63176;52.678;13.250;2023-02-17T14:39:02;9.93;;;5.95;;
7289;SDS011;63176;52.678;13.250;2023-02-17T14:41:29;9.48;;;7.30;;
7289;SDS011;63176;52.678;13.250;2023-02-17T14:43:55;8.80;;;6.50;;
7289;SDS011;63176;52.678;13.250;2023-02-17T14:46:20;12.70;;;6.87;;
7289;SDS011;63176;52.678;13.250;2023-02-17T14:48:47;10.93;;;6.50;;
7289;SDS011;63176;52.678;13.250;2023-02-17T14:51:14;11.32;;;6.88;;
7289;SDS011;63176;52.678;13.250;2023-02-17T14:53:42;8.57;;;6.65;;
7289;SDS011;63176;52.678;13.250;2023-02-17T14:58:37;12.43;;;7.97;;
7289;SDS011;63176;52.678;13.250;2023-02-17T15:01:03;10.33;;;7.50;;
7289;SDS011;63176;52.678;13.250;2023-02-17T15:03:29;9.02;;;6.63;;
7289;SDS011;63176;52.678;13.250;2023-02-17T15:05:56;11.05;;;6.80;;
7289;SDS011;63176;52.678;13.250;2023-02-17T15:08:27;11.55;;;7.75;;
7289;SDS011;63176;52.678;13.250;2023-02-17T15:10:56;11.55;;;7.38;;
7289;SDS011;63176;52.678;13.250;2023-02-17T15:13:22;11.23;;;7.13;;
7289;SDS011;63176;52.678;13.250;2023-02-17T15:15:47;10.60;;;7.20;;
7289;SDS011;63176;52.678;13.250;2023-02-17T15:18:14;13.60;;;7.10;;
7289;SDS011;63176;52.678;13.250;2023-02-17T15:20:42;9.25;;;6.55;;
7289;SDS011;63176;52.678;13.250;2023-02-17T15:23:13;10.10;;;6.20;;
7289;SDS011;63176;52.678;13.250;2023-02-17T15:25:40;11.60;;;6.80;;
7289;SDS011;63176;52.678;13.250;2023-02-17T15:28:07;11.80;;;6.97;;
7289;SDS011;63176;52.678;13.250;2023-02-17T15:30:35;8.35;;;5.40;;
7289;SDS011;63176;52.678;13.250;2023-02-17T15:33:01;13.40;;;6.60;;
7289;SDS011;63176;52.678;13.250;2023-02-17T15:35:27;10.60;;;6.03;;
7289;SDS011;63176;52.678;13.250;2023-02-17T15:37:53;10.90;;;6.68;;
7289;SDS011;63176;52.678;13.250;2023-02-17T15:40:23;10.95;;;6.70;;
7289;SDS011;63176;52.678;13.250;2023-02-17T15:42:57;10.15;;;5.65;;
7289;SDS011;63176;52.678;13.250;2023-02-17T15:45:27;11.73;;;7.28;;
7289;SDS011;63176;52.678;13.250;2023-02-17T15:47:59;11.93;;;6.55;;
7289;SDS011;63176;52.678;13.250;2023-02-17T15:50:31;9.02;;;6.03;;
7289;SDS011;63176;52.678;13.250;2023-02-17T15:52:57;10.87;;;5.90;;
7289;SDS011;63176;52.678;13.250;2023-02-17T15:55:23;9.10;;;6.25;;
7289;SDS011;63176;52.678;13.250;2023-02-17T15:57:50;9.73;;;6.13;;
7289;SDS011;63176;52.678;13.250;2023-02-17T16:00:29;12.38;;;6.47;;
7289;SDS011;63176;52.678;13.250;2023-02-17T16:02:56;6.28;;;4.82;;
7289;SDS011;63176;52.678;13.250;2023-02-17T16:05:23;7.50;;;5.10;;
7289;SDS011;63176;52.678;13.250;2023-02-17T16:07:51;7.85;;;5.35;;
7289;SDS011;63176;52.678;13.250;2023-02-17T16:10:18;8.93;;;5.20;;
7289;SDS011;63176;52.678;13.250;2023-02-17T16:12:45;7.22;;;4.10;;
7289;SDS011;63176;52.678;13.250;2023-02-17T16:15:14;7.78;;;4.63;;
7289;SDS011;63176;52.678;13.250;2023-02-17T16:17:41;6.68;;;3.95;;
7289;SDS011;63176;52.678;13.250;2023-02-17T16:22:45;11.40;;;4.10;;
7289;SDS011;63176;52.678;13.250;2023-02-17T16:25:12;6.55;;;4.40;;